Chennai, India
Current Conditions -  °F | °C
As of 2:10 AM on Saturday 29 Nov 2014 (Local Time) from VOMM Reporting Station
Haze Haze  
Wind Chill: 24°   Ceiling: Unl
Heat Index: 24°   Visibility: 1.8mi
Dew Point: 22°   Wind: 5mph
Humidity: 89%   Direction: 320°NW
Pressure: 29.8"   Gusts: NA
Location:  13.06°N, 80.25°E
Report Text: VOMM 282110Z 32004KT 3000 BR SCT020 SCT100 24/22 Q1009 NOSIG
Loading
Personal Weather Stations






























Interactive Weather Map New forecast layout! Learn more

10-Day Weather Forecast

Advertisements
Track Severe Weather on mobile